PWSweather.com
Personal Weather Stations
Station Observations
IMAZOWIE6
WarszawaPL

WarszawaPL

Lat: 52.27957, Lon: 21.05489

Elevation: 100

Station Type: WS1080

http://stacjapogody.waw.pl/

High Low Average
Temperature 50.9°F10.5°C 30.0°F-1.1°C 42.6°F5.9°C
Dew Point -167.7°F-110.9°C -169.8°F-112.1°C -168.5°F-111.4°C
Winds Calm Calm Calm Calm Calm NCalm N
Wind Gusts 2.0 mph3.2 kmh -- --
Humidity - - -
Pressure 29.54 in1000.3 mb 29.18 in988.1 mb -
Precipitation 0.00 in0.0 mm - -
Hour Temp Dew Point Humidity Winds Wind Gusts Pressure Precip Precip Rate Daily Precip Total
12:03 AM 31.1°F-0.5°C -169.7°F-112.1°C - Calm Calm -- 29.54 in1000.3 mb 0.00 in0.0 mm 0.00 in0.0 mm 0.00 in0.0 mm
12:16 AM 31.1°F-0.5°C -169.7°F-112.1°C - Calm Calm -- 29.54 in1000.3 mb 0.00 in0.0 mm 0.00 in0.0 mm 0.00 in0.0 mm
12:33 AM 30.9°F-0.6°C -169.7°F-112.1°C - Calm Calm -- 29.53 in1000.0 mb 0.00 in0.0 mm 0.00 in0.0 mm 0.00 in0.0 mm
12:48 AM 30.9°F-0.6°C -169.7°F-112.1°C - Calm Calm -- 29.52 in999.7 mb 0.00 in0.0 mm 0.00 in0.0 mm 0.00 in0.0 mm
01:03 AM 30.4°F-0.9°C -169.8°F-112.1°C - Calm Calm -- 29.52 in999.7 mb 0.00 in0.0 mm 0.00 in0.0 mm 0.00 in0.0 mm
01:18 AM 30.6°F-0.8°C -169.7°F-112.1°C - Calm Calm 0.6 mph1.0 kmh 29.52 in999.7 mb 0.00 in0.0 mm 0.00 in0.0 mm 0.00 in0.0 mm
01:31 AM 30.6°F-0.8°C -169.7°F-112.1°C - Calm Calm 0.6 mph1.0 kmh 29.52 in999.7 mb 0.00 in0.0 mm 0.00 in0.0 mm 0.00 in0.0 mm
01:48 AM 30.4°F-0.9°C -169.8°F-112.1°C - Calm Calm -- 29.51 in999.3 mb 0.00 in0.0 mm 0.00 in0.0 mm 0.00 in0.0 mm
02:03 AM 30.6°F-0.8°C -169.7°F-112.1°C - Calm Calm -- 29.51 in999.3 mb 0.00 in0.0 mm 0.00 in0.0 mm 0.00 in0.0 mm
02:18 AM 30.4°F-0.9°C -169.8°F-112.1°C - Calm Calm -- 29.50 in999.0 mb 0.00 in0.0 mm 0.00 in0.0 mm 0.00 in0.0 mm
02:33 AM 30.0°F-1.1°C -169.8°F-112.1°C - Calm Calm -- 29.50 in999.0 mb 0.00 in0.0 mm 0.00 in0.0 mm 0.00 in0.0 mm
02:48 AM 30.4°F-0.9°C -169.8°F-112.1°C - Calm Calm -- 29.50 in999.0 mb 0.00 in0.0 mm 0.00 in0.0 mm 0.00 in0.0 mm
03:03 AM 30.6°F-0.8°C -169.7°F-112.1°C - Calm Calm -- 29.49 in998.6 mb 0.00 in0.0 mm 0.00 in0.0 mm 0.00 in0.0 mm
03:18 AM 31.3°F-0.4°C -169.7°F-112.1°C - Calm Calm -- 29.49 in998.6 mb 0.00 in0.0 mm 0.00 in0.0 mm 0.00 in0.0 mm
03:33 AM 31.3°F-0.4°C -169.7°F-112.1°C - Calm Calm -- 29.48 in998.3 mb 0.00 in0.0 mm 0.00 in0.0 mm 0.00 in0.0 mm
03:48 AM 31.8°F-0.1°C -169.6°F-112.0°C - Calm Calm -- 29.47 in998.0 mb 0.00 in0.0 mm 0.00 in0.0 mm 0.00 in0.0 mm
04:03 AM 32.2°F0.1°C -169.6°F-112.0°C - Calm Calm -- 29.47 in998.0 mb 0.00 in0.0 mm 0.00 in0.0 mm 0.00 in0.0 mm
04:18 AM 32.2°F0.1°C -169.6°F-112.0°C - Calm Calm -- 29.47 in998.0 mb 0.00 in0.0 mm 0.00 in0.0 mm 0.00 in0.0 mm
04:33 AM 32.2°F0.1°C -169.6°F-112.0°C - Calm Calm -- 29.46 in997.6 mb 0.00 in0.0 mm 0.00 in0.0 mm 0.00 in0.0 mm
04:48 AM 32.5°F0.3°C -169.5°F-111.9°C - Calm Calm -- 29.46 in997.6 mb 0.00 in0.0 mm 0.00 in0.0 mm 0.00 in0.0 mm
05:03 AM 32.5°F0.3°C -169.5°F-111.9°C - Calm Calm -- 29.46 in997.6 mb 0.00 in0.0 mm 0.00 in0.0 mm 0.00 in0.0 mm
05:18 AM 32.5°F0.3°C -169.5°F-111.9°C - Calm Calm -- 29.45 in997.3 mb 0.00 in0.0 mm 0.00 in0.0 mm 0.00 in0.0 mm
05:33 AM 32.5°F0.3°C -169.5°F-111.9°C - Calm Calm -- 29.45 in997.3 mb 0.00 in0.0 mm 0.00 in0.0 mm 0.00 in0.0 mm
05:48 AM 32.7°F0.4°C -169.5°F-111.9°C - Calm Calm -- 29.45 in997.3 mb 0.00 in0.0 mm 0.00 in0.0 mm 0.00 in0.0 mm
06:03 AM 32.7°F0.4°C -169.5°F-111.9°C - Calm Calm -- 29.44 in997.0 mb 0.00 in0.0 mm 0.00 in0.0 mm 0.00 in0.0 mm
06:18 AM 33.1°F0.6°C -169.5°F-111.9°C - Calm Calm -- 29.43 in996.6 mb 0.00 in0.0 mm 0.00 in0.0 mm 0.00 in0.0 mm
06:33 AM 33.3°F0.7°C -169.5°F-111.9°C - Calm Calm -- 29.43 in996.6 mb 0.00 in0.0 mm 0.00 in0.0 mm 0.00 in0.0 mm
06:48 AM 33.3°F0.7°C -169.5°F-111.9°C - Calm Calm -- 29.43 in996.6 mb 0.00 in0.0 mm 0.00 in0.0 mm 0.00 in0.0 mm
07:03 AM 33.8°F1.0°C -169.4°F-111.9°C - Calm Calm -- 29.42 in996.3 mb 0.00 in0.0 mm 0.00 in0.0 mm 0.00 in0.0 mm
07:18 AM 34.7°F1.5°C -169.3°F-111.8°C - Calm Calm -- 29.42 in996.3 mb 0.00 in0.0 mm 0.00 in0.0 mm 0.00 in0.0 mm
07:33 AM 35.6°F2.0°C -169.2°F-111.8°C - Calm Calm -- 29.42 in996.3 mb 0.00 in0.0 mm 0.00 in0.0 mm 0.00 in0.0 mm
07:48 AM 36.5°F2.5°C -169.2°F-111.8°C - Calm Calm -- 29.41 in995.9 mb 0.00 in0.0 mm 0.00 in0.0 mm 0.00 in0.0 mm
08:03 AM 36.7°F2.6°C -169.1°F-111.7°C - Calm Calm -- 29.42 in996.3 mb 0.00 in0.0 mm 0.00 in0.0 mm 0.00 in0.0 mm
08:18 AM 38.1°F3.4°C -169.0°F-111.7°C - Calm Calm -- 29.41 in995.9 mb 0.00 in0.0 mm 0.00 in0.0 mm 0.00 in0.0 mm
08:33 AM 41.0°F5.0°C -168.7°F-111.5°C - Calm Calm -- 29.40 in995.6 mb 0.00 in0.0 mm 0.00 in0.0 mm 0.00 in0.0 mm
08:48 AM 46.8°F8.2°C -168.1°F-111.2°C - Calm Calm -- 29.40 in995.6 mb 0.00 in0.0 mm 0.00 in0.0 mm 0.00 in0.0 mm
09:03 AM 48.4°F9.1°C -168.0°F-111.1°C - Calm Calm -- 29.40 in995.6 mb 0.00 in0.0 mm 0.00 in0.0 mm 0.00 in0.0 mm
09:18 AM 50.4°F10.2°C -167.8°F-111.0°C - Calm Calm -- 29.39 in995.3 mb 0.00 in0.0 mm 0.00 in0.0 mm 0.00 in0.0 mm
09:33 AM 50.9°F10.5°C -167.7°F-110.9°C - Calm Calm -- 29.39 in995.3 mb 0.00 in0.0 mm 0.00 in0.0 mm 0.00 in0.0 mm
09:48 AM 48.7°F9.3°C -167.9°F-111.1°C - Calm Calm -- 29.38 in994.9 mb 0.00 in0.0 mm 0.00 in0.0 mm 0.00 in0.0 mm
10:00 AM 48.7°F9.3°C -167.9°F-111.1°C - Calm Calm -- 29.38 in994.9 mb 0.00 in0.0 mm 0.00 in0.0 mm 0.00 in0.0 mm
10:16 AM 48.7°F9.3°C -167.9°F-111.1°C - Calm Calm -- 29.38 in994.9 mb 0.00 in0.0 mm 0.00 in0.0 mm 0.00 in0.0 mm
10:33 AM 48.0°F8.9°C -168.0°F-111.1°C - Calm Calm -- 29.36 in994.2 mb 0.00 in0.0 mm 0.00 in0.0 mm 0.00 in0.0 mm
10:48 AM 48.4°F9.1°C -168.0°F-111.1°C - Calm Calm -- 29.36 in994.2 mb 0.00 in0.0 mm 0.00 in0.0 mm 0.00 in0.0 mm
11:03 AM 48.0°F8.9°C -168.0°F-111.1°C - Calm Calm -- 29.37 in994.6 mb 0.00 in0.0 mm 0.00 in0.0 mm 0.00 in0.0 mm
11:18 AM 49.6°F9.8°C -167.8°F-111.0°C - Calm Calm -- 29.36 in994.2 mb 0.00 in0.0 mm 0.00 in0.0 mm 0.00 in0.0 mm
11:34 AM 49.8°F9.9°C -167.8°F-111.0°C - Calm Calm -- 29.35 in993.9 mb 0.00 in0.0 mm 0.00 in0.0 mm 0.00 in0.0 mm
11:50 AM 48.9°F9.4°C -167.9°F-111.1°C - Calm Calm -- 29.34 in993.6 mb 0.00 in0.0 mm 0.00 in0.0 mm 0.00 in0.0 mm
12:01 PM 48.6°F9.2°C -167.9°F-111.1°C - Calm Calm -- 29.34 in993.6 mb 0.00 in0.0 mm 0.00 in0.0 mm 0.00 in0.0 mm
12:16 PM 47.7°F8.7°C -168.0°F-111.1°C - Calm Calm -- 29.33 in993.2 mb 0.00 in0.0 mm 0.00 in0.0 mm 0.00 in0.0 mm
12:31 PM 48.0°F8.9°C -168.0°F-111.1°C - Calm Calm -- 29.33 in993.2 mb 0.00 in0.0 mm 0.00 in0.0 mm 0.00 in0.0 mm
12:46 PM 47.8°F8.8°C -168.0°F-111.1°C - Calm Calm -- 29.33 in993.2 mb 0.00 in0.0 mm 0.00 in0.0 mm 0.00 in0.0 mm
01:01 PM 47.8°F8.8°C -168.0°F-111.1°C - Calm Calm -- 29.32 in992.9 mb 0.00 in0.0 mm 0.00 in0.0 mm 0.00 in0.0 mm
01:16 PM 47.5°F8.6°C -168.1°F-111.2°C - Calm Calm 2.0 mph3.2 kmh 29.32 in992.9 mb 0.00 in0.0 mm 0.00 in0.0 mm 0.00 in0.0 mm
01:30 PM 47.5°F8.6°C -168.1°F-111.2°C - Calm Calm 2.0 mph3.2 kmh 29.32 in992.9 mb 0.00 in0.0 mm 0.00 in0.0 mm 0.00 in0.0 mm
01:46 PM 47.3°F8.5°C -168.1°F-111.2°C - Calm Calm -- 29.31 in992.6 mb 0.00 in0.0 mm 0.00 in0.0 mm 0.00 in0.0 mm
02:01 PM 48.0°F8.9°C -168.0°F-111.1°C - Calm Calm -- 29.30 in992.2 mb 0.00 in0.0 mm 0.00 in0.0 mm 0.00 in0.0 mm
02:16 PM 47.8°F8.8°C -168.0°F-111.1°C - Calm Calm -- 29.30 in992.2 mb 0.00 in0.0 mm 0.00 in0.0 mm 0.00 in0.0 mm
02:31 PM 48.0°F8.9°C -168.0°F-111.1°C - Calm Calm -- 29.29 in991.9 mb 0.00 in0.0 mm 0.00 in0.0 mm 0.00 in0.0 mm
02:46 PM 48.2°F9.0°C -168.0°F-111.1°C - Calm Calm -- 29.28 in991.5 mb 0.00 in0.0 mm 0.00 in0.0 mm 0.00 in0.0 mm
03:01 PM 48.6°F9.2°C -167.9°F-111.1°C - Calm Calm -- 29.28 in991.5 mb 0.00 in0.0 mm 0.00 in0.0 mm 0.00 in0.0 mm
03:16 PM 48.2°F9.0°C -168.0°F-111.1°C - Calm Calm -- 29.28 in991.5 mb 0.00 in0.0 mm 0.00 in0.0 mm 0.00 in0.0 mm
03:31 PM 48.2°F9.0°C -168.0°F-111.1°C - Calm Calm -- 29.27 in991.2 mb 0.00 in0.0 mm 0.00 in0.0 mm 0.00 in0.0 mm
03:46 PM 48.4°F9.1°C -168.0°F-111.1°C - Calm Calm -- 29.26 in990.9 mb 0.00 in0.0 mm 0.00 in0.0 mm 0.00 in0.0 mm
04:01 PM 48.0°F8.9°C -168.0°F-111.1°C - Calm Calm -- 29.26 in990.9 mb 0.00 in0.0 mm 0.00 in0.0 mm 0.00 in0.0 mm
04:16 PM 48.0°F8.9°C -168.0°F-111.1°C - Calm Calm -- 29.25 in990.5 mb 0.00 in0.0 mm 0.00 in0.0 mm 0.00 in0.0 mm
04:31 PM 48.4°F9.1°C -168.0°F-111.1°C - Calm Calm -- 29.25 in990.5 mb 0.00 in0.0 mm 0.00 in0.0 mm 0.00 in0.0 mm
04:46 PM 48.6°F9.2°C -167.9°F-111.1°C - Calm Calm -- 29.25 in990.5 mb 0.00 in0.0 mm 0.00 in0.0 mm 0.00 in0.0 mm
05:01 PM 48.9°F9.4°C -167.9°F-111.1°C - Calm Calm -- 29.25 in990.5 mb 0.00 in0.0 mm 0.00 in0.0 mm 0.00 in0.0 mm
05:16 PM 49.5°F9.7°C -167.9°F-111.1°C - Calm Calm -- 29.24 in990.2 mb 0.00 in0.0 mm 0.00 in0.0 mm 0.00 in0.0 mm
05:31 PM 49.5°F9.7°C -167.9°F-111.1°C - Calm Calm -- 29.24 in990.2 mb 0.00 in0.0 mm 0.00 in0.0 mm 0.00 in0.0 mm
05:46 PM 49.5°F9.7°C -167.9°F-111.1°C - Calm Calm -- 29.24 in990.2 mb 0.00 in0.0 mm 0.00 in0.0 mm 0.00 in0.0 mm
06:01 PM 49.3°F9.6°C -167.9°F-111.1°C - Calm Calm -- 29.24 in990.2 mb 0.00 in0.0 mm 0.00 in0.0 mm 0.00 in0.0 mm
06:16 PM 49.1°F9.5°C -167.9°F-111.1°C - Calm Calm -- 29.23 in989.8 mb 0.00 in0.0 mm 0.00 in0.0 mm 0.00 in0.0 mm
06:31 PM 48.7°F9.3°C -167.9°F-111.1°C - Calm Calm -- 29.23 in989.8 mb 0.00 in0.0 mm 0.00 in0.0 mm 0.00 in0.0 mm
06:46 PM 48.7°F9.3°C -167.9°F-111.1°C - Calm Calm -- 29.23 in989.8 mb 0.00 in0.0 mm 0.00 in0.0 mm 0.00 in0.0 mm
07:01 PM 48.9°F9.4°C -167.9°F-111.1°C - Calm Calm -- 29.22 in989.5 mb 0.00 in0.0 mm 0.00 in0.0 mm 0.00 in0.0 mm
07:16 PM 49.5°F9.7°C -167.9°F-111.1°C - Calm Calm -- 29.22 in989.5 mb 0.00 in0.0 mm 0.00 in0.0 mm 0.00 in0.0 mm
07:31 PM 48.9°F9.4°C -167.9°F-111.1°C - Calm Calm -- 29.22 in989.5 mb 0.00 in0.0 mm 0.00 in0.0 mm 0.00 in0.0 mm
07:46 PM 48.6°F9.2°C -167.9°F-111.1°C - Calm Calm 0.6 mph1.0 kmh 29.22 in989.5 mb 0.01 in0.3 mm 0.05 in1.3 mm 0.01 in0.3 mm
08:01 PM 48.4°F9.1°C -168.0°F-111.1°C - Calm Calm -- 29.22 in989.5 mb 0.01 in0.3 mm 0.00 in0.0 mm 0.01 in0.3 mm
08:16 PM 47.8°F8.8°C -168.0°F-111.1°C - Calm Calm 0.6 mph1.0 kmh 29.22 in989.5 mb 0.02 in0.5 mm 0.05 in1.3 mm 0.02 in0.5 mm
08:31 PM 48.0°F8.9°C -168.0°F-111.1°C - Calm Calm -- 29.21 in989.2 mb 0.02 in0.5 mm 0.00 in0.0 mm 0.02 in0.5 mm
08:46 PM 48.0°F8.9°C -168.0°F-111.1°C - Calm Calm 0.6 mph1.0 kmh 29.21 in989.2 mb 0.02 in0.5 mm 0.00 in0.0 mm 0.02 in0.5 mm
09:01 PM 47.8°F8.8°C -168.0°F-111.1°C - Calm Calm -- 29.21 in989.2 mb 0.04 in1.0 mm 0.02 in0.5 mm 0.04 in1.0 mm
09:16 PM 47.8°F8.8°C -168.0°F-111.1°C - Calm Calm -- 29.21 in989.2 mb 0.01 in0.3 mm 0.00 in0.0 mm 0.04 in1.0 mm
09:31 PM 47.8°F8.8°C -168.0°F-111.1°C - Calm Calm 1.4 mph2.3 kmh 29.21 in989.2 mb 0.01 in0.3 mm 0.00 in0.0 mm 0.04 in1.0 mm
09:46 PM 47.8°F8.8°C -168.0°F-111.1°C - Calm Calm -- 29.21 in989.2 mb 0.01 in0.3 mm 0.00 in0.0 mm 0.04 in1.0 mm
10:01 PM 47.8°F8.8°C -168.0°F-111.1°C - Calm Calm 0.6 mph1.0 kmh 29.21 in989.2 mb 0.02 in0.5 mm 0.02 in0.5 mm 0.05 in1.3 mm
10:16 PM 47.8°F8.8°C -168.0°F-111.1°C - Calm Calm -- 29.21 in989.2 mb 0.00 in0.0 mm 0.00 in0.0 mm 0.05 in1.3 mm
10:31 PM 47.8°F8.8°C -168.0°F-111.1°C - Calm Calm 1.4 mph2.3 kmh 29.21 in989.2 mb 0.00 in0.0 mm 0.00 in0.0 mm 0.05 in1.3 mm
10:46 PM 47.7°F8.7°C -168.0°F-111.1°C - Calm Calm 0.6 mph1.0 kmh 29.20 in988.8 mb 0.01 in0.3 mm 0.05 in1.3 mm 0.06 in1.5 mm
11:01 PM 47.8°F8.8°C -168.0°F-111.1°C - Calm Calm 0.6 mph1.0 kmh 29.19 in988.5 mb 0.01 in0.3 mm 0.00 in0.0 mm 0.06 in1.5 mm
11:16 PM 47.7°F8.7°C -168.0°F-111.1°C - Calm Calm 0.6 mph1.0 kmh 29.19 in988.5 mb 0.00 in0.0 mm 0.00 in0.0 mm 0.06 in1.5 mm
11:31 PM 47.7°F8.7°C -168.0°F-111.1°C - Calm Calm -- 29.18 in988.1 mb 0.00 in0.0 mm 0.00 in0.0 mm 0.06 in1.5 mm
11:46 PM 47.7°F8.7°C -168.0°F-111.1°C - Calm Calm 2.0 mph3.2 kmh 29.18 in988.1 mb 0.00 in0.0 mm 0.00 in0.0 mm 0.06 in1.5 mm